Time;durP1;ratioP1;P1;durP2;ratioP2;P2;SDS_P1;SDS_P2;PMS_P1;PMS_P2;Temp;Humidity;BMP_temperature;BMP_pressure;BME280_temperature;BME280_humidity;BME280_pressure;Samples;Min_cycle;Max_cycle;Signal;HPM_P1;HPM_P2
2024/02/08 00:00:07;;;;;;;;;;;;;;;21.65;26.66;97250.78;5038327;28;803;-74
2024/02/08 00:02:33;;;;;;;;;;;;;;;21.38;26.63;97251.41;5037957;28;783;-74
2024/02/08 00:04:59;;;;;;;;;;;;;;;21.11;27.22;97255.59;5054356;28;1064;-74
2024/02/08 00:07:24;;;;;;;;;;;;;;;21.23;26.91;97266.06;5054998;28;846;-74
2024/02/08 00:09:51;;;;;;;;;;;;;;;21.42;26.98;97271.88;5065925;28;1479;-73
2024/02/08 00:12:16;;;;;;;;;;;;;;;21.67;26.39;97257.59;5075708;28;1099;-74
2024/02/08 00:14:42;;;;;;;;;;;;;;;21.80;26.21;97275.25;5076731;28;1977;-73
2024/02/08 00:17:08;;;;;;;;;;;;;;;21.87;25.88;97265.72;5075321;28;731;-73
2024/02/08 00:19:33;;;;;;;;;;;;;;;21.38;26.49;97259.91;5075626;28;1176;-73
2024/02/08 00:21:59;;;;;;;;;;;;;;;21.10;26.87;97268.19;5059237;28;1140;-74
2024/02/08 00:24:24;;;;;;;;;;;;;;;21.54;26.74;97260.47;5059280;28;1085;-73
2024/02/08 00:26:50;;;;;;;;;;;;;;;21.74;26.51;97265.00;5057141;28;1000;-73
2024/02/08 00:29:16;;;;;;;;;;;;;;;21.29;26.86;97269.88;5057628;28;784;-74
2024/02/08 00:31:42;;;;;;;;;;;;;;;21.02;27.28;97261.19;5074220;28;903;-74
2024/02/08 00:34:07;;;;;;;;;;;;;;;21.17;26.84;97267.13;5057190;28;1910;-73
2024/02/08 00:36:33;;;;;;;;;;;;;;;21.20;27.04;97261.34;5040832;28;1294;-73
2024/02/08 00:38:58;;;;;;;;;;;;;;;21.73;26.30;97258.56;5057144;28;723;-73
2024/02/08 00:41:24;;;;;;;;;;;;;;;21.57;26.45;97258.78;5040641;28;868;-74
2024/02/08 00:43:50;;;;;;;;;;;;;;;21.75;26.40;97255.25;5073560;28;770;-74
2024/02/08 00:46:16;;;;;;;;;;;;;;;21.52;26.78;97253.72;5040802;28;1226;-74
2024/02/08 00:48:43;;;;;;;;;;;;;;;21.17;27.03;97262.25;5057039;28;839;-74
2024/02/08 00:51:09;;;;;;;;;;;;;;;21.08;27.53;97265.00;5040868;28;879;-73
2024/02/08 00:53:34;;;;;;;;;;;;;;;21.40;27.02;97258.22;5057068;28;1901;-73
2024/02/08 00:56:00;;;;;;;;;;;;;;;21.58;26.56;97263.19;5057595;28;877;-73
2024/02/08 00:58:25;;;;;;;;;;;;;;;21.73;26.53;97263.44;5069120;28;954;-73
2024/02/08 01:00:53;;;;;;;;;;;;;;;21.56;26.45;97260.03;5074994;28;736;-74
2024/02/08 01:03:19;;;;;;;;;;;;;;;21.25;26.89;97255.09;5058577;28;700;-73
2024/02/08 01:05:51;;;;;;;;;;;;;;;21.06;27.17;97264.69;5058264;28;755;-74
2024/02/08 01:08:17;;;;;;;;;;;;;;;21.52;26.75;97259.38;5074825;28;826;-74
2024/02/08 01:10:43;;;;;;;;;;;;;;;21.68;26.52;97255.53;5058171;28;1145;-74
2024/02/08 01:13:08;;;;;;;;;;;;;;;21.62;26.48;97263.84;5058088;28;1194;-73
2024/02/08 01:15:35;;;;;;;;;;;;;;;21.52;26.87;97262.22;5074840;28;1902;-74
2024/02/08 01:18:03;;;;;;;;;;;;;;;21.42;26.83;97266.22;5058110;28;1374;-73
2024/02/08 01:20:29;;;;;;;;;;;;;;;21.31;27.11;97272.28;5058048;28;1071;-73
2024/02/08 01:22:55;;;;;;;;;;;;;;;21.22;26.81;97272.97;5075747;28;803;-73
2024/02/08 01:25:20;;;;;;;;;;;;;;;21.40;26.82;97269.53;5057826;28;735;-73
2024/02/08 01:27:46;;;;;;;;;;;;;;;21.60;26.65;97277.66;5074014;28;1346;-73
2024/02/08 01:30:13;;;;;;;;;;;;;;;21.72;26.59;97281.69;5074653;28;841;-73
2024/02/08 01:32:39;;;;;;;;;;;;;;;21.66;26.41;97281.50;5058064;28;727;-74
2024/02/08 01:35:06;;;;;;;;;;;;;;;21.39;26.71;97275.63;5074468;28;1902;-74
2024/02/08 01:37:38;;;;;;;;;;;;;;;21.32;27.06;97273.88;5040377;28;968;-74
2024/02/08 01:40:06;;;;;;;;;;;;;;;21.01;27.65;97271.72;5075404;28;714;-74
2024/02/08 01:42:32;;;;;;;;;;;;;;;21.39;26.99;97264.31;5057950;28;1287;-74
2024/02/08 01:45:09;;;;;;;;;;;;;;;21.52;26.86;97265.03;5074420;28;719;-73
2024/02/08 01:47:35;;;;;;;;;;;;;;;21.64;26.74;97261.31;5074446;28;794;-74
2024/02/08 01:50:02;;;;;;;;;;;;;;;21.61;26.49;97255.81;5057916;28;1098;-74
2024/02/08 01:52:28;;;;;;;;;;;;;;;21.37;26.59;97261.16;5074745;28;705;-74
2024/02/08 01:54:55;;;;;;;;;;;;;;;21.37;27.10;97261.16;5075752;28;1910;-73
2024/02/08 01:57:21;;;;;;;;;;;;;;;21.46;26.88;97262.03;5076608;28;1645;-74
2024/02/08 01:59:52;;;;;;;;;;;;;;;21.89;26.26;97265.25;5076014;28;964;-73
2024/02/08 02:02:21;;;;;;;;;;;;;;;21.71;26.64;97254.59;5076414;28;1315;-74
2024/02/08 02:04:47;;;;;;;;;;;;;;;21.32;26.94;97254.84;5076408;28;811;-74
2024/02/08 02:07:13;;;;;;;;;;;;;;;21.08;27.25;97248.03;5093677;28;848;-74
2024/02/08 02:09:39;;;;;;;;;;;;;;;21.20;27.15;97254.91;5093408;28;781;-73
2024/02/08 02:12:04;;;;;;;;;;;;;;;21.52;26.81;97253.72;5092919;28;953;-74
2024/02/08 02:14:30;;;;;;;;;;;;;;;21.68;26.53;97255.53;5075653;28;1953;-74
2024/02/08 02:17:08;;;;;;;;;;;;;;;21.75;26.50;97250.38;5076262;28;819;-74
2024/02/08 02:19:34;;;;;;;;;;;;;;;21.61;26.33;97256.59;5076227;28;991;-74
2024/02/08 02:21:59;;;;;;;;;;;;;;;21.23;27.09;97256.78;5059432;28;1071;-74
2024/02/08 02:24:25;;;;;;;;;;;;;;;21.38;26.86;97259.91;5076123;28;1030;-73
2024/02/08 02:26:52;;;;;;;;;;;;;;;21.49;26.76;97251.81;5052912;28;1161;-74
2024/02/08 02:29:21;;;;;;;;;;;;;;;21.65;26.73;97251.56;5069261;28;935;-74
2024/02/08 02:31:49;;;;;;;;;;;;;;;21.65;26.70;97257.25;5036088;28;900;-74
2024/02/08 02:34:15;;;;;;;;;;;;;;;21.78;26.51;97255.13;5069051;28;1966;-74
2024/02/08 02:36:44;;;;;;;;;;;;;;;21.20;27.23;97254.91;5069450;28;719;-74
2024/02/08 02:39:13;;;;;;;;;;;;;;;21.09;27.48;97255.28;5052185;28;926;-73
2024/02/08 02:41:40;;;;;;;;;;;;;;;21.33;27.26;97256.41;5052736;28;909;-73
2024/02/08 02:44:08;;;;;;;;;;;;;;;21.63;26.63;97264.63;5035820;28;1221;-73
2024/02/08 02:46:35;;;;;;;;;;;;;;;21.46;26.82;97262.03;5052665;28;793;-74
2024/02/08 02:49:03;;;;;;;;;;;;;;;21.36;26.92;97262.44;5052362;28;903;-74
2024/02/08 02:51:30;;;;;;;;;;;;;;;21.04;27.38;97270.00;5055883;28;926;-73
2024/02/08 02:53:57;;;;;;;;;;;;;;;21.21;27.13;97273.44;5072237;28;1983;-74
2024/02/08 02:56:23;;;;;;;;;;;;;;;21.58;26.91;97266.00;5056132;28;1122;-73
2024/02/08 02:58:49;;;;;;;;;;;;;;;21.53;26.79;97273.06;5072279;28;1049;-74
2024/02/08 03:01:14;;;;;;;;;;;;;;;21.76;26.62;97263.31;5072947;28;715;-74
2024/02/08 03:03:40;;;;;;;;;;;;;;;21.56;26.88;97271.38;5085486;28;954;-73
2024/02/08 03:06:15;;;;;;;;;;;;;;;21.14;27.20;97282.16;5117040;28;788;-74
2024/02/08 03:08:42;;;;;;;;;;;;;;;21.35;26.80;97286.28;5084825;28;1236;-74
2024/02/08 03:11:10;;;;;;;;;;;;;;;21.59;26.73;97290.22;5082490;28;892;-74
2024/02/08 03:13:43;;;;;;;;;;;;;;;21.55;26.80;97286.75;5115833;28;1918;-74
2024/02/08 03:16:14;;;;;;;;;;;;;;;21.83;26.60;97291.34;5099741;28;743;-74
2024/02/08 03:18:43;;;;;;;;;;;;;;;21.53;26.90;97300.56;5116178;28;943;-74
2024/02/08 03:21:10;;;;;;;;;;;;;;;21.39;26.99;97295.44;5082471;28;781;-74
2024/02/08 03:23:36;;;;;;;;;;;;;;;21.33;26.98;97293.19;5058175;28;887;-74
2024/02/08 03:26:07;;;;;;;;;;;;;;;21.46;26.83;97289.53;5059104;28;975;-74
2024/02/08 03:28:33;;;;;;;;;;;;;;;21.52;26.87;97290.50;5059300;28;901;-73
2024/02/08 03:30:59;;;;;;;;;;;;;;;21.79;26.56;97295.56;5075759;28;790;-74
2024/02/08 03:33:25;;;;;;;;;;;;;;;21.66;26.76;97287.16;5074809;28;1906;-74
2024/02/08 03:35:53;;;;;;;;;;;;;;;21.47;26.80;97285.44;5039433;28;873;-74
2024/02/08 03:38:19;;;;;;;;;;;;;;;21.35;26.91;97294.78;5055263;28;975;-74
2024/02/08 03:40:44;;;;;;;;;;;;;;;21.50;26.72;97295.84;5055387;28;834;-74
2024/02/08 03:43:10;;;;;;;;;;;;;;;21.83;26.54;97297.00;5038396;28;927;-73
2024/02/08 03:45:39;;;;;;;;;;;;;;;21.60;26.70;97300.31;5037935;28;903;-73
2024/02/08 03:48:05;;;;;;;;;;;;;;;21.61;26.81;97296.25;5054749;28;1030;-73
2024/02/08 03:50:34;;;;;;;;;;;;;;;21.64;26.71;97289.63;5005765;28;1005;-74
2024/02/08 03:53:00;;;;;;;;;;;;;;;21.20;27.31;97300.94;5022334;28;1130;-73
2024/02/08 03:55:26;;;;;;;;;;;;;;;21.13;27.35;97301.19;5054819;28;1910;-73
2024/02/08 03:58:00;;;;;;;;;;;;;;;21.17;27.34;97301.84;5058035;28;1063;-74
2024/02/08 04:00:29;;;;;;;;;;;;;;;21.59;26.89;97298.72;5074169;28;903;-74
2024/02/08 04:02:57;;;;;;;;;;;;;;;21.52;26.74;97301.84;5057949;28;866;-74
2024/02/08 04:54:30;;;;;;;;;;;;;;;20.95;27.38;97318.00;5036845;28;1902;-74
2024/02/08 04:56:59;;;;;;;;;;;;;;;21.19;27.48;97324.03;5053641;28;1357;-74
2024/02/08 04:59:26;;;;;;;;;;;;;;;21.31;27.26;97317.56;5053387;28;1094;-74
2024/02/08 05:01:53;;;;;;;;;;;;;;;21.70;26.37;97316.09;5037403;28;1171;-73
2024/02/08 05:04:20;;;;;;;;;;;;;;;21.72;26.46;97322.09;5020959;28;1755;-74
2024/02/08 05:06:46;;;;;;;;;;;;;;;21.72;26.46;97319.28;5037304;28;993;-74
2024/02/08 05:09:15;;;;;;;;;;;;;;;21.37;26.85;97315.72;5036910;28;992;-74
2024/02/08 05:11:43;;;;;;;;;;;;;;;21.42;26.87;97317.19;5017147;28;1225;-74
2024/02/08 05:14:09;;;;;;;;;;;;;;;21.27;27.18;97314.03;5017096;28;1906;-74
2024/02/08 05:16:37;;;;;;;;;;;;;;;21.59;26.77;97316.50;5017836;28;1068;-74
2024/02/08 05:19:04;;;;;;;;;;;;;;;21.73;26.56;97309.53;5049980;28;1536;-74
2024/02/08 05:21:31;;;;;;;;;;;;;;;21.64;26.53;97300.19;5021066;28;1134;-73
2024/02/08 05:23:58;;;;;;;;;;;;;;;21.71;26.72;97308.38;5040351;28;1095;-74
2024/02/08 05:26:25;;;;;;;;;;;;;;;21.45;26.66;97314.22;5040694;28;1337;-74
2024/02/08 05:28:52;;;;;;;;;;;;;;;21.58;26.49;97311.31;5056974;28;1190;-74
2024/02/08 05:31:18;;;;;;;;;;;;;;;21.44;27.09;97320.31;5040773;28;1241;-75
2024/02/08 05:33:44;;;;;;;;;;;;;;;21.68;26.62;97317.81;5056610;28;1985;-75
2024/02/08 05:36:10;;;;;;;;;;;;;;;21.91;26.06;97322.19;5041001;28;1012;-75
2024/02/08 05:38:37;;;;;;;;;;;;;;;21.79;26.18;97321.81;5056599;28;1033;-75
2024/02/08 05:41:05;;;;;;;;;;;;;;;21.73;26.25;97315.19;5057415;28;1032;-75
2024/02/08 05:43:31;;;;;;;;;;;;;;;22.04;25.88;97318.03;5047823;28;1772;-75
2024/02/08 05:45:57;;;;;;;;;;;;;;;21.49;26.65;97328.22;5053738;28;1545;-75
2024/02/08 05:48:27;;;;;;;;;;;;;;;21.03;27.33;97324.97;5068647;28;1504;-74
2024/02/08 05:50:56;;;;;;;;;;;;;;;21.18;27.11;97319.63;5093794;28;1539;-75
2024/02/08 05:53:29;;;;;;;;;;;;;;;21.29;27.19;97326.47;5049178;28;1565;-75
2024/02/08 05:55:59;;;;;;;;;;;;;;;21.74;26.40;97322.41;5093769;28;1546;-75
2024/02/08 05:58:27;;;;;;;;;;;;;;;21.62;26.57;97326.13;5074426;28;1510;-75
2024/02/08 06:01:01;;;;;;;;;;;;;;;21.81;26.30;97327.00;5093494;28;1551;-75
2024/02/08 06:03:33;;;;;;;;;;;;;;;21.69;26.63;97320.19;5093146;28;1002;-75
2024/02/08 06:06:15;;;;;;;;;;;;;;;21.36;27.07;97324.69;5078080;28;922;-75
2024/02/08 06:08:42;;;;;;;;;;;;;;;21.17;27.32;97335.00;5093331;28;913;-75
2024/02/08 06:11:20;;;;;;;;;;;;;;;21.52;27.09;97339.41;5060348;28;1155;-75
2024/02/08 06:13:58;;;;;;;;;;;;;;;21.72;26.43;97341.94;5077540;28;1910;-75
2024/02/08 06:16:27;;;;;;;;;;;;;;;21.67;26.82;97339.69;5045269;28;1180;-74
2024/02/08 06:18:59;;;;;;;;;;;;;;;21.58;26.78;97336.78;5059745;28;969;-75
2024/02/08 06:21:39;;;;;;;;;;;;;;;21.33;27.04;97344.13;5044072;28;1124;-75
2024/02/08 06:26:55;;;;;;;;;;;;;;;21.17;27.25;97337.84;5057103;28;961;-75
2024/02/08 06:29:26;;;;;;;;;;;;;;;21.41;27.33;97346.72;5023763;28;1100;-75
2024/02/08 06:32:00;;;;;;;;;;;;;;;21.73;26.68;97343.50;5023928;28;1259;-75
2024/02/08 06:34:42;;;;;;;;;;;;;;;21.69;26.72;97354.16;5023734;28;1961;-75
2024/02/08 06:40:07;;;;;;;;;;;;;;;21.14;27.29;97353.72;5000377;28;1341;-74
2024/02/08 06:47:56;;;;;;;;;;;;;;;21.57;26.85;97358.66;4996842;28;998;-75
2024/02/08 07:39:37;;;;;;;;;;;;;;;21.57;27.18;97357.84;5055428;28;1306;-76
2024/02/08 07:44:54;;;;;;;;;;;;;;;21.39;27.39;97352.03;5041350;28;1027;-76
2024/02/08 07:47:24;;;;;;;;;;;;;;;21.30;27.36;97344.28;5039757;28;1091;-75
2024/02/08 07:50:04;;;;;;;;;;;;;;;21.53;26.94;97343.81;5055095;28;1087;-76
2024/02/08 07:52:58;;;;;;;;;;;;;;;21.73;26.91;97337.84;5055462;28;979;-76
2024/02/08 07:55:46;;;;;;;;;;;;;;;21.11;27.88;97340.47;5055427;28;1902;-76
2024/02/08 07:58:09;;;;;;;;;;;;;;;21.12;27.56;97339.22;5003357;28;1151;-76
2024/02/08 08:03:08;;;;;;;;;;;;;;;21.47;27.28;97347.72;5038202;28;1528;-76
2024/02/08 08:05:41;;;;;;;;;;;;;;;21.59;27.11;97355.34;5039149;28;1017;-75
2024/02/08 08:11:15;;;;;;;;;;;;;;;22.27;26.19;97350.75;5115670;23;1913;-77
2024/02/08 08:13:50;;;;;;;;;;;;;;;22.35;25.83;97346.38;5021529;28;1902;-76
2024/02/08 08:19:07;;;;;;;;;;;;;;;21.34;27.15;97344.94;5023276;28;996;-76
2024/02/08 08:21:58;;;;;;;;;;;;;;;21.19;27.48;97336.16;5006886;28;1026;-76
2024/02/08 08:24:25;;;;;;;;;;;;;;;21.44;26.93;97338.09;4966709;28;1500;-76
2024/02/08 08:29:47;;;;;;;;;;;;;;;21.68;26.69;97341.25;4901061;29;1481;-76
2024/02/08 08:37:44;;;;;;;;;;;;;;;21.46;26.83;97346.94;4920701;29;1096;-76
2024/02/08 08:42:50;;;;;;;;;;;;;;;21.62;26.58;97354.44;4904733;29;944;-76
2024/02/08 08:45:19;;;;;;;;;;;;;;;21.70;26.74;97343.63;4904886;29;1188;-76
2024/02/08 08:47:45;;;;;;;;;;;;;;;21.24;27.32;97352.53;4920274;29;1062;-77
2024/02/08 08:50:20;;;;;;;;;;;;;;;21.16;27.01;97339.88;4904467;29;1073;-76
2024/02/08 08:52:49;;;;;;;;;;;;;;;21.17;27.11;97340.69;4904943;29;980;-76
2024/02/08 08:55:17;;;;;;;;;;;;;;;21.45;26.74;97338.88;4911512;28;1915;-76
2024/02/08 08:58:04;;;;;;;;;;;;;;;21.50;26.89;97347.59;4946111;28;1512;-76
2024/02/08 09:00:32;;;;;;;;;;;;;;;21.75;26.36;97343.81;4950062;28;1454;-76
2024/02/08 09:03:10;;;;;;;;;;;;;;;20.89;27.26;97337.59;4947079;28;1543;-76
2024/02/08 09:05:36;;;;;;;;;;;;;;;21.26;26.94;97350.03;4937057;28;1460;-76
2024/02/08 09:08:08;;;;;;;;;;;;;;;21.31;26.81;97346.66;4930875;28;1528;-76
2024/02/08 09:10:40;;;;;;;;;;;;;;;21.64;26.14;97351.13;4957935;28;1426;-76
2024/02/08 09:13:07;;;;;;;;;;;;;;;21.62;26.14;97351.59;4935655;29;1525;-76
2024/02/08 09:15:47;;;;;;;;;;;;;;;21.66;26.06;97340.94;4946719;28;1978;-76
2024/02/08 09:18:15;;;;;;;;;;;;;;;21.72;26.17;97341.94;4955554;28;1551;-76
2024/02/08 09:20:41;;;;;;;;;;;;;;;21.72;26.10;97341.94;4976762;28;970;-76
2024/02/08 09:23:13;;;;;;;;;;;;;;;21.55;26.20;97349.03;4976697;28;1009;-76
2024/02/08 09:25:44;;;;;;;;;;;;;;;21.11;27.14;97343.28;4945540;28;904;-77
2024/02/08 09:28:23;;;;;;;;;;;;;;;21.01;27.15;97356.56;4960886;28;1009;-76
2024/02/08 09:30:57;;;;;;;;;;;;;;;21.21;26.98;97349.84;4960821;28;1120;-77
2024/02/08 09:33:35;;;;;;;;;;;;;;;21.51;26.28;97349.16;4928861;28;1395;-76
2024/02/08 09:36:01;;;;;;;;;;;;;;;21.71;26.05;97334.69;4938633;29;1910;-76
2024/02/08 09:38:28;;;;;;;;;;;;;;;21.87;25.85;97344.22;4906525;29;1086;-76
2024/02/08 09:40:59;;;;;;;;;;;;;;;21.71;26.03;97343.19;4950940;28;960;-76
2024/02/08 09:43:29;;;;;;;;;;;;;;;20.86;27.15;97329.22;4960284;28;961;-76
2024/02/08 09:46:10;;;;;;;;;;;;;;;21.05;27.11;97331.00;4961386;28;973;-76
2024/02/08 09:48:47;;;;;;;;;;;;;;;21.17;26.78;97341.47;4976821;28;1176;-76
2024/02/08 09:51:23;;;;;;;;;;;;;;;21.41;26.42;97333.38;4938528;29;1007;-76
2024/02/08 09:53:52;;;;;;;;;;;;;;;21.42;26.37;97334.16;4940326;29;1942;-76
2024/02/08 09:56:37;;;;;;;;;;;;;;;21.10;26.82;97324.75;4948703;29;1583;-76
2024/02/08 09:59:07;;;;;;;;;;;;;;;21.05;27.10;97334.59;4942099;29;1556;-76
2024/02/08 10:01:42;;;;;;;;;;;;;;;21.31;26.51;97326.84;4945745;29;1759;-76
2024/02/08 10:04:16;;;;;;;;;;;;;;;21.30;26.72;97330.94;4898168;29;1608;-76
2024/02/08 10:06:45;;;;;;;;;;;;;;;21.52;26.24;97319.59;4911587;29;1620;-75
2024/02/08 10:11:58;;;;;;;;;;;;;;;21.47;26.07;97314.53;4936780;29;1892;-76
2024/02/08 10:14:32;;;;;;;;;;;;;;;21.10;26.65;97316.25;4925870;29;1976;-76
2024/02/08 10:17:24;;;;;;;;;;;;;;;20.85;27.19;97310.69;4884993;29;1264;-76
2024/02/08 10:20:32;;;;;;;;;;;;;;;21.30;26.34;97305.47;4869266;29;1027;-76
2024/02/08 10:22:53;;;;;;;;;;;;;;;21.48;26.19;97301.97;4912994;29;1036;-76
2024/02/08 10:28:10;;;;;;;;;;;;;;;21.62;25.83;97286.50;4927102;29;1576;-76
2024/02/08 10:30:44;;;;;;;;;;;;;;;21.61;26.23;97289.78;4925450;29;968;-76
2024/02/08 10:33:14;;;;;;;;;;;;;;;21.23;26.58;97288.69;4926517;29;969;-76
2024/02/08 10:35:40;;;;;;;;;;;;;;;21.22;26.43;97287.13;4940986;29;1977;-76
2024/02/08 10:38:18;;;;;;;;;;;;;;;21.30;26.19;97282.81;4944604;29;1020;-76
2024/02/08 10:40:55;;;;;;;;;;;;;;;21.44;26.06;97273.00;4961094;28;916;-76
2024/02/08 10:43:24;;;;;;;;;;;;;;;21.66;25.88;97270.16;4929103;28;1678;-76
2024/02/08 10:45:53;;;;;;;;;;;;;;;20.84;27.03;97266.69;4961451;28;917;-76
2024/02/08 10:48:22;;;;;;;;;;;;;;;21.07;26.72;97274.75;4991078;28;919;-76
2024/02/08 10:50:49;;;;;;;;;;;;;;;21.25;26.51;97274.09;5021115;28;913;-77
2024/02/08 10:56:00;;;;;;;;;;;;;;;21.74;25.80;97265.78;4989543;28;1915;-77
2024/02/08 10:58:27;;;;;;;;;;;;;;;21.58;25.78;97258.31;5002556;28;1003;-76
2024/02/08 11:01:32;;;;;;;;;;;;;;;21.27;26.41;97255.41;4987709;28;871;-76
2024/02/08 11:04:00;;;;;;;;;;;;;;;20.65;27.28;97249.56;5002536;28;1090;-76
2024/02/08 11:06:34;;;;;;;;;;;;;;;20.91;26.66;97250.25;4970032;28;983;-77
2024/02/08 11:09:14;;;;;;;;;;;;;;;21.30;26.12;97243.22;5003375;28;1503;-76
2024/02/08 11:12:03;;;;;;;;;;;;;;;21.62;25.88;97246.84;4973079;28;1501;-77
2024/02/08 11:14:30;;;;;;;;;;;;;;;21.58;25.61;97244.16;4940478;29;1973;-77
2024/02/08 11:17:03;;;;;;;;;;;;;;;21.37;25.90;97241.34;4924921;29;948;-76
2024/02/08 11:19:34;;;;;;;;;;;;;;;20.98;26.70;97237.88;4925319;29;934;-76
2024/02/08 11:22:18;;;;;;;;;;;;;;;20.96;26.49;97234.75;4924534;29;1712;-76
2024/02/08 11:24:57;;;;;;;;;;;;;;;20.84;26.84;97235.59;4902055;29;1045;-77
2024/02/08 11:27:28;;;;;;;;;;;;;;;21.36;26.03;97229.25;4902413;29;1007;-77
2024/02/08 11:29:57;;;;;;;;;;;;;;;21.50;25.87;97239.22;4901885;29;996;-77
2024/02/08 11:32:24;;;;;;;;;;;;;;;21.63;25.61;97220.13;4886936;29;934;-76
2024/02/08 11:34:54;;;;;;;;;;;;;;;21.00;26.69;97226.94;4902090;29;1970;-77
2024/02/08 11:37:27;;;;;;;;;;;;;;;20.88;26.68;97222.09;4886831;29;999;-77
2024/02/08 11:39:59;;;;;;;;;;;;;;;20.90;26.45;97239.41;4917637;29;980;-77
2024/02/08 11:42:30;;;;;;;;;;;;;;;21.51;25.75;97229.50;4886882;29;1226;-77
2024/02/08 11:44:57;;;;;;;;;;;;;;;21.46;25.85;97227.28;4902103;29;1019;-77
2024/02/08 11:47:23;;;;;;;;;;;;;;;21.68;25.46;97215.91;4903982;29;1001;-77
2024/02/08 11:49:52;;;;;;;;;;;;;;;21.82;25.24;97218.19;4887587;29;913;-78
2024/02/08 11:52:19;;;;;;;;;;;;;;;21.56;25.31;97226.06;4933723;28;1038;-77
2024/02/08 11:54:45;;;;;;;;;;;;;;;21.32;25.59;97217.28;4946658;28;1875;-77
2024/02/08 11:57:13;;;;;;;;;;;;;;;21.42;25.90;97216.06;4965659;28;1014;-78
2024/02/08 11:59:39;;;;;;;;;;;;;;;21.35;26.10;97215.53;4965336;28;954;-78
2024/02/08 12:02:10;;;;;;;;;;;;;;;21.49;25.71;97215.78;4981787;28;1056;-78
2024/02/08 12:04:36;;;;;;;;;;;;;;;21.45;25.78;97214.34;4949549;28;1249;-78
2024/02/08 12:07:07;;;;;;;;;;;;;;;21.68;25.67;97210.25;4965170;28;979;-78
2024/02/08 12:09:33;;;;;;;;;;;;;;;21.27;26.18;97204.47;4965281;28;1130;-78
2024/02/08 12:11:58;;;;;;;;;;;;;;;21.16;26.35;97209.75;4981505;28;1001;-78
2024/02/08 12:14:27;;;;;;;;;;;;;;;20.96;26.56;97206.47;4973883;28;1891;-78
2024/02/08 12:16:57;;;;;;;;;;;;;;;21.38;26.05;97215.41;5005441;28;1007;-78
2024/02/08 12:19:24;;;;;;;;;;;;;;;21.44;25.81;97209.94;5022273;28;1485;-79
2024/02/08 12:21:56;;;;;;;;;;;;;;;21.57;25.97;97210.66;5003082;28;1362;-78
2024/02/08 12:24:23;;;;;;;;;;;;;;;21.76;25.36;97218.00;5010788;28;1626;-78
2024/02/08 12:26:53;;;;;;;;;;;;;;;21.49;25.87;97215.00;5016517;28;1578;-78
2024/02/08 12:29:19;;;;;;;;;;;;;;;21.64;25.59;97210.38;4995759;28;1623;-79
2024/02/08 12:31:48;;;;;;;;;;;;;;;21.18;26.25;97207.25;5009717;28;1374;-78
2024/02/08 12:34:16;;;;;;;;;;;;;;;20.83;26.91;97214.19;5031430;28;1958;-77
2024/02/08 12:36:44;;;;;;;;;;;;;;;20.88;26.64;97205.13;5017375;28;1615;-77
2024/02/08 12:39:17;;;;;;;;;;;;;;;21.25;26.00;97203.38;5014682;28;1645;-77
2024/02/08 12:41:46;;;;;;;;;;;;;;;21.44;25.67;97212.78;4999892;28;1969;-78
2024/02/08 12:44:15;;;;;;;;;;;;;;;21.57;25.69;97202.16;5014173;28;1623;-77
2024/02/08 12:46:42;;;;;;;;;;;;;;;21.46;25.66;97202.59;5020062;28;1500;-77
2024/02/08 12:49:08;;;;;;;;;;;;;;;21.08;26.22;97202.78;5015219;28;1578;-77
2024/02/08 12:51:36;;;;;;;;;;;;;;;21.35;26.07;97207.06;5033929;28;1554;-78
2024/02/08 12:54:03;;;;;;;;;;;;;;;21.39;25.83;97196.41;5007668;28;1898;-77
2024/02/08 12:56:29;;;;;;;;;;;;;;;21.66;25.28;97199.38;5043308;28;956;-77
2024/02/08 12:58:59;;;;;;;;;;;;;;;21.64;25.58;97199.03;5041617;28;947;-77
2024/02/08 13:01:25;;;;;;;;;;;;;;;21.59;25.56;97191.16;5025548;28;954;-77
2024/02/08 13:03:54;;;;;;;;;;;;;;;21.64;25.47;97187.72;5041091;28;928;-78
2024/02/08 13:06:19;;;;;;;;;;;;;;;21.13;26.04;97195.72;5009664;28;1239;-77
2024/02/08 13:08:46;;;;;;;;;;;;;;;21.23;26.07;97181.19;5040593;28;965;-77
2024/02/08 13:11:18;;;;;;;;;;;;;;;21.00;26.39;97190.16;5004914;28;1238;-78
2024/02/08 13:13:45;;;;;;;;;;;;;;;21.26;26.07;97191.59;5000111;28;957;-77
2024/02/08 13:16:11;;;;;;;;;;;;;;;21.43;25.55;97171.59;5002480;28;1958;-78
2024/02/08 13:18:41;;;;;;;;;;;;;;;21.30;25.86;97183.00;5000682;28;849;-78
2024/02/08 13:21:08;;;;;;;;;;;;;;;21.64;25.26;97182.06;5002594;28;924;-78
2024/02/08 13:23:34;;;;;;;;;;;;;;;21.69;25.31;97172.97;4999678;28;979;-78
2024/02/08 13:26:00;;;;;;;;;;;;;;;21.33;25.89;97177.19;5002618;28;890;-78
2024/02/08 13:28:26;;;;;;;;;;;;;;;21.09;25.93;97173.25;4999441;28;965;-78
2024/02/08 13:30:52;;;;;;;;;;;;;;;21.39;25.64;97171.72;5002559;28;1028;-78
2024/02/08 13:33:18;;;;;;;;;;;;;;;21.41;25.80;97174.88;5000449;28;933;-78
2024/02/08 13:35:43;;;;;;;;;;;;;;;21.59;25.33;97174.16;5001895;28;1961;-78
2024/02/08 13:38:12;;;;;;;;;;;;;;;21.81;25.28;97174.91;5000710;28;844;-79
2024/02/08 13:40:44;;;;;;;;;;;;;;;21.83;24.89;97172.38;5001562;28;942;-78
2024/02/08 13:43:18;;;;;;;;;;;;;;;21.43;25.63;97165.91;5000324;28;1007;-78
2024/02/08 13:45:43;;;;;;;;;;;;;;;20.87;26.33;97164.75;5001899;28;928;-78
2024/02/08 13:48:15;;;;;;;;;;;;;;;21.05;26.28;97164.13;4999991;28;989;-78
2024/02/08 13:50:46;;;;;;;;;;;;;;;21.28;25.70;97171.31;4986619;28;1072;-78
2024/02/08 13:53:14;;;;;;;;;;;;;;;21.87;25.63;97165.81;5131990;23;3725;-72
2024/02/08 13:55:45;;;;;;;;;;;;;;;21.58;26.55;97172.59;5015663;28;1956;-74
2024/02/08 13:58:13;;;;;;;;;;;;;;;21.50;26.47;97171.28;4979331;28;1144;-74
2024/02/08 14:00:41;;;;;;;;;;;;;;;21.41;26.50;97174.09;4994781;28;1009;-73
2024/02/08 14:03:08;;;;;;;;;;;;;;;21.46;26.73;97165.00;4979170;28;969;-74
2024/02/08 14:05:38;;;;;;;;;;;;;;;21.69;26.35;97166.50;4979044;28;996;-75
2024/02/08 14:08:05;;;;;;;;;;;;;;;21.91;26.12;97177.75;4978586;28;930;-75
2024/02/08 14:10:33;;;;;;;;;;;;;;;21.62;26.50;97178.91;4956158;29;1006;-76
2024/02/08 14:12:59;;;;;;;;;;;;;;;21.41;27.11;97179.75;4956291;29;1006;-75
2024/02/08 14:15:29;;;;;;;;;;;;;;;21.02;27.69;97176.34;4924364;29;1974;-75
2024/02/08 14:17:57;;;;;;;;;;;;;;;21.16;27.38;97175.81;4924468;29;1641;-76
2024/02/08 14:20:39;;;;;;;;;;;;;;;21.56;26.86;97177.94;4936826;29;930;-75
2024/02/08 14:23:06;;;;;;;;;;;;;;;21.68;26.82;97182.72;4936626;29;1074;-75
2024/02/08 14:25:48;;;;;;;;;;;;;;;21.73;26.74;97179.28;4936681;29;991;-75
2024/02/08 14:28:19;;;;;;;;;;;;;;;21.69;26.79;97177.84;4911143;29;945;-75
2024/02/08 14:30:45;;;;;;;;;;;;;;;21.33;27.04;97180.00;4955954;29;1106;-76
2024/02/08 14:33:11;;;;;;;;;;;;;;;21.32;27.39;97177.66;4955573;29;971;-76
2024/02/08 14:35:38;;;;;;;;;;;;;;;21.25;27.39;97178.69;4939648;29;1903;-75
2024/02/08 14:38:05;;;;;;;;;;;;;;;21.62;27.12;97184.56;4923933;29;978;-75
2024/02/08 14:40:31;;;;;;;;;;;;;;;21.61;26.84;97171.69;4942143;28;903;-75
2024/02/08 14:42:57;;;;;;;;;;;;;;;21.87;26.58;97175.09;4975273;28;925;-75
2024/02/08 14:45:24;;;;;;;;;;;;;;;21.54;27.07;97177.59;4961521;28;992;-75
2024/02/08 14:47:51;;;;;;;;;;;;;;;21.32;27.35;97178.44;4905616;29;1020;-76
2024/02/08 14:53:10;;;;;;;;;;;;;;;21.50;27.28;97180.59;4901654;29;1067;-75
2024/02/08 14:55:36;;;;;;;;;;;;;;;21.73;26.84;97184.94;4886829;29;1918;-75
2024/02/08 14:58:02;;;;;;;;;;;;;;;21.62;26.96;97178.91;4886216;29;1505;-75
2024/02/08 15:03:02;;;;;;;;;;;;;;;21.58;27.25;97184.72;4886950;29;1134;-75
2024/02/08 15:11:03;;;;;;;;;;;;;;;21.43;27.38;97188.56;4834438;29;1416;-75
2024/02/08 15:13:38;;;;;;;;;;;;;;;21.76;27.30;97188.88;4864546;29;1543;-75
2024/02/08 15:16:07;;;;;;;;;;;;;;;21.68;27.30;97181.94;4848333;29;1931;-75
2024/02/08 15:18:47;;;;;;;;;;;;;;;21.93;26.77;97180.94;4851304;29;1625;-76
2024/02/08 15:21:17;;;;;;;;;;;;;;;21.78;27.03;97187.16;4882913;29;1881;-75
2024/02/08 15:24:18;;;;;;;;;;;;;;;21.72;26.92;97188.25;4849552;29;1643;-75
2024/02/08 15:26:37;;;;;;;;;;;;;;;20.97;28.30;97185.41;4882480;29;1580;-75
2024/02/08 15:29:04;;;;;;;;;;;;;;;21.29;27.89;97196.31;4866857;29;1560;-75
2024/02/08 15:36:50;;;;;;;;;;;;;;;21.60;27.42;97209.72;4915425;29;1013;-74
2024/02/08 15:42:17;;;;;;;;;;;;;;;21.29;27.81;97201.19;4864154;29;1067;-75
2024/02/08 15:44:45;;;;;;;;;;;;;;;21.39;27.80;97199.22;4911495;29;1038;-75
2024/02/08 15:47:15;;;;;;;;;;;;;;;21.70;27.33;97210.56;4938949;29;1187;-76
2024/02/08 15:49:44;;;;;;;;;;;;;;;21.75;26.99;97210.72;4926896;28;1365;-75